createdAt,value
2023-07-29T00:02:00.775Z,13.07
2023-07-29T00:04:28.759Z,11.10
2023-07-29T00:06:56.990Z,11.63
2023-07-29T00:09:26.264Z,13.25
2023-07-29T00:11:54.486Z,14.02
2023-07-29T00:14:22.381Z,14.43
2023-07-29T00:16:50.279Z,11.57
2023-07-29T00:19:18.222Z,12.23
2023-07-29T00:21:46.116Z,11.23
2023-07-29T00:24:13.966Z,18.55
2023-07-29T00:26:43.171Z,14.73
2023-07-29T00:29:10.972Z,11.38
2023-07-29T00:31:39.045Z,10.52
2023-07-29T00:34:06.937Z,15.00
2023-07-29T00:36:35.169Z,10.68
2023-07-29T00:39:03.290Z,16.77
2023-07-29T00:41:31.164Z,18.90
2023-07-29T00:44:00.415Z,14.45
2023-07-29T00:46:28.377Z,12.45
2023-07-29T00:48:56.212Z,13.98
2023-07-29T00:51:24.033Z,18.67
2023-07-29T00:53:51.964Z,12.70
2023-07-29T00:56:19.845Z,10.65
2023-07-29T00:58:47.684Z,13.68
2023-07-29T01:01:16.924Z,10.40
2023-07-29T01:03:46.686Z,11.13
2023-07-29T01:06:16.098Z,15.07
2023-07-29T01:08:48.999Z,12.20
2023-07-29T01:11:24.022Z,10.57
2023-07-29T01:13:55.395Z,9.55
2023-07-29T01:16:27.970Z,9.73
2023-07-29T01:18:56.211Z,8.13
2023-07-29T01:21:24.154Z,10.13
2023-07-29T01:23:56.027Z,7.55
2023-07-29T01:26:24.135Z,11.25
2023-07-29T01:28:51.962Z,9.38
2023-07-29T01:31:22.679Z,8.65
2023-07-29T01:33:54.464Z,9.77
2023-07-29T01:36:24.634Z,8.15
2023-07-29T01:38:52.492Z,8.60
2023-07-29T01:41:22.288Z,8.40
2023-07-29T01:43:50.221Z,5.68
2023-07-29T01:46:18.176Z,7.82
2023-07-29T01:48:46.092Z,5.05
2023-07-29T01:51:14.090Z,6.63
2023-07-29T01:53:41.984Z,3.90
2023-07-29T01:56:09.897Z,9.05
2023-07-29T01:58:39.405Z,8.65
2023-07-29T02:01:07.317Z,6.82
2023-07-29T02:03:35.235Z,4.47
2023-07-29T02:06:03.150Z,6.05
2023-07-29T02:08:31.087Z,5.85
2023-07-29T02:10:58.959Z,3.92
2023-07-29T02:13:26.880Z,4.18
2023-07-29T02:15:56.128Z,5.75
2023-07-29T02:18:24.041Z,9.65
2023-07-29T02:20:51.856Z,4.38
2023-07-29T02:23:19.726Z,5.72
2023-07-29T02:25:47.665Z,4.22
2023-07-29T02:28:15.601Z,5.00
2023-07-29T02:30:45.135Z,7.47
2023-07-29T02:33:14.588Z,8.00
2023-07-29T02:35:42.544Z,7.80
2023-07-29T02:38:10.417Z,9.55
2023-07-29T02:40:38.268Z,14.88
2023-07-29T02:43:06.133Z,8.10
2023-07-29T02:45:33.920Z,12.65
2023-07-29T02:48:02.266Z,8.30
2023-07-29T02:50:31.649Z,8.35
2023-07-29T02:52:59.548Z,11.35
2023-07-29T02:55:27.420Z,10.40
2023-07-29T02:57:55.245Z,10.98
2023-07-29T03:00:23.116Z,11.57
2023-07-29T03:02:52.144Z,12.13
2023-07-29T03:05:20.158Z,11.02
2023-07-29T03:07:49.299Z,13.35
2023-07-29T03:10:17.213Z,10.98
2023-07-29T03:12:45.094Z,14.73
2023-07-29T03:15:13.516Z,13.77
2023-07-29T03:17:41.353Z,12.05
2023-07-29T03:20:10.294Z,11.40
2023-07-29T03:22:38.129Z,11.63
2023-07-29T03:25:08.618Z,10.43
2023-07-29T03:27:37.480Z,14.00
2023-07-29T03:30:06.186Z,11.25
2023-07-29T03:32:34.278Z,8.85
2023-07-29T03:35:02.435Z,10.07
2023-07-29T03:37:30.345Z,8.10
2023-07-29T03:39:58.195Z,9.63
2023-07-29T03:42:27.342Z,12.93
2023-07-29T03:44:55.162Z,14.43
2023-07-29T03:47:23.102Z,7.13
2023-07-29T03:49:51.012Z,9.85
2023-07-29T03:52:18.872Z,13.25
2023-07-29T03:54:46.786Z,8.18
2023-07-29T03:57:14.708Z,10.93
2023-07-29T03:59:44.003Z,8.50
2023-07-29T04:02:11.902Z,16.20
2023-07-29T04:04:39.786Z,12.77
2023-07-29T04:07:08.022Z,10.98
2023-07-29T04:09:35.906Z,10.68
2023-07-29T04:12:04.074Z,9.48
2023-07-29T04:14:31.952Z,8.68
2023-07-29T04:17:01.523Z,9.57
2023-07-29T04:19:29.356Z,13.27
2023-07-29T04:21:57.186Z,7.22
2023-07-29T04:24:25.073Z,8.38
2023-07-29T04:26:52.912Z,5.28
2023-07-29T04:29:20.947Z,5.85
2023-07-29T04:31:48.768Z,5.70
2023-07-29T04:34:17.970Z,8.75
2023-07-29T04:36:45.798Z,9.82
2023-07-29T04:39:13.801Z,5.25
2023-07-29T04:41:41.971Z,8.18
2023-07-29T04:44:09.876Z,9.75
2023-07-29T04:46:38.495Z,4.93
2023-07-29T04:49:06.597Z,7.65
2023-07-29T04:51:35.832Z,7.32
2023-07-29T04:54:03.785Z,6.45
2023-07-29T04:56:31.702Z,8.48
2023-07-29T04:58:59.600Z,6.25
2023-07-29T05:01:27.518Z,5.85
2023-07-29T05:03:55.607Z,8.57
2023-07-29T05:06:23.506Z,4.85
2023-07-29T05:08:52.713Z,9.48
2023-07-29T05:11:20.538Z,5.32
2023-07-29T05:13:48.429Z,5.97
2023-07-29T05:16:16.382Z,8.32
2023-07-29T05:18:44.408Z,8.40
2023-07-29T05:21:15.325Z,7.18
2023-07-29T05:23:43.273Z,9.27
2023-07-29T05:26:12.544Z,7.38
2023-07-29T05:28:40.397Z,4.90
2023-07-29T05:31:08.396Z,5.43
2023-07-29T05:33:37.644Z,8.65
2023-07-29T05:36:06.224Z,5.40
2023-07-29T05:38:34.069Z,9.05
2023-07-29T05:41:02.014Z,7.63
2023-07-29T05:43:31.169Z,9.85
2023-07-29T05:45:59.003Z,5.55
2023-07-29T05:48:26.884Z,13.32
2023-07-29T05:50:54.750Z,10.20
2023-07-29T05:53:22.595Z,6.18
2023-07-29T05:55:50.750Z,4.85
2023-07-29T05:58:18.592Z,8.63
2023-07-29T06:00:47.787Z,6.40
2023-07-29T06:03:15.820Z,5.60
2023-07-29T06:05:43.774Z,5.35
2023-07-29T06:08:11.699Z,4.97
2023-07-29T06:10:40.734Z,5.40
2023-07-29T06:13:09.115Z,5.10
2023-07-29T06:15:37.014Z,6.78
2023-07-29T06:18:06.363Z,5.90
2023-07-29T06:20:34.274Z,4.15
2023-07-29T06:23:03.072Z,7.15
2023-07-29T06:25:30.910Z,7.95
2023-07-29T06:27:59.450Z,4.97
2023-07-29T06:30:27.524Z,4.78
2023-07-29T06:32:56.109Z,4.45
2023-07-29T06:35:25.606Z,4.75
2023-07-29T06:37:53.433Z,10.25
2023-07-29T06:40:21.312Z,5.35
2023-07-29T06:42:49.161Z,8.35
2023-07-29T06:45:17.343Z,8.60
2023-07-29T06:47:45.211Z,8.25
2023-07-29T06:50:13.693Z,7.18
2023-07-29T06:52:42.886Z,5.68
2023-07-29T06:55:10.723Z,6.20
2023-07-29T06:57:38.957Z,6.85
2023-07-29T07:00:10.280Z,6.03
2023-07-29T07:02:38.227Z,8.35
2023-07-29T07:05:06.771Z,6.93
2023-07-29T07:07:34.652Z,6.25
2023-07-29T07:10:03.986Z,5.95
2023-07-29T07:12:31.879Z,8.68
2023-07-29T07:14:59.750Z,7.20
2023-07-29T07:17:27.612Z,8.25
2023-07-29T07:19:55.437Z,5.85
2023-07-29T07:22:23.345Z,6.18
2023-07-29T07:24:51.213Z,7.90
2023-07-29T07:27:20.493Z,8.40
2023-07-29T07:29:48.386Z,10.80
2023-07-29T07:32:16.218Z,11.10
2023-07-29T07:34:44.016Z,6.95
2023-07-29T07:37:11.903Z,6.00
2023-07-29T07:39:39.743Z,5.82
2023-07-29T07:42:08.179Z,6.78
2023-07-29T07:44:37.332Z,5.68
2023-07-29T07:47:05.559Z,6.78
2023-07-29T07:49:33.475Z,7.95
2023-07-29T07:52:01.363Z,9.65
2023-07-29T07:54:29.196Z,6.05
2023-07-29T07:56:57.080Z,4.63
2023-07-29T07:59:24.933Z,5.30
2023-07-29T08:01:54.408Z,6.65
2023-07-29T08:04:22.319Z,4.07
2023-07-29T08:06:50.197Z,5.30
2023-07-29T08:09:18.053Z,3.25
2023-07-29T08:11:45.950Z,4.95
2023-07-29T08:14:13.883Z,3.13
2023-07-29T08:16:41.758Z,2.05
2023-07-29T08:19:10.987Z,4.03
2023-07-29T08:21:38.944Z,0.75
2023-07-29T08:24:07.882Z,2.70
2023-07-29T08:26:36.022Z,1.40
2023-07-29T08:29:04.148Z,3.05
2023-07-29T08:31:34.561Z,0.60
2023-07-29T08:34:02.619Z,0.73
2023-07-29T08:36:31.787Z,0.80
2023-07-29T08:38:59.561Z,3.13
2023-07-29T08:41:28.161Z,0.82
2023-07-29T08:44:01.595Z,0.70
2023-07-29T08:46:29.521Z,1.55
2023-07-29T08:48:57.457Z,1.33
2023-07-29T08:51:25.571Z,0.93
2023-07-29T08:53:54.700Z,0.80
2023-07-29T08:56:22.504Z,4.45
2023-07-29T08:58:50.336Z,3.10
2023-07-29T09:01:18.246Z,0.63
2023-07-29T09:03:46.228Z,1.10
2023-07-29T09:06:14.242Z,1.20
2023-07-29T09:08:42.145Z,0.55
2023-07-29T09:11:11.345Z,5.18
2023-07-29T09:13:39.355Z,3.50
2023-07-29T09:16:07.312Z,1.25
2023-07-29T09:18:35.238Z,1.02
2023-07-29T09:21:03.130Z,1.52
2023-07-29T09:23:30.949Z,0.57
2023-07-29T09:26:03.328Z,0.60
2023-07-29T09:28:35.200Z,1.52
2023-07-29T09:31:03.228Z,4.10
2023-07-29T09:33:32.493Z,0.88
2023-07-29T09:36:00.322Z,2.65
2023-07-29T09:38:28.652Z,1.00
2023-07-29T09:40:57.268Z,4.13
2023-07-29T09:43:27.604Z,2.92
2023-07-29T09:45:56.820Z,0.88
2023-07-29T09:48:24.934Z,0.80
2023-07-29T09:50:52.820Z,1.58
2023-07-29T09:53:20.752Z,1.02
2023-07-29T09:55:48.819Z,0.85
2023-07-29T09:58:16.709Z,1.45
2023-07-29T10:00:44.545Z,3.75
2023-07-29T10:03:13.890Z,2.10
2023-07-29T10:05:42.113Z,1.42
2023-07-29T10:08:09.952Z,2.42
2023-07-29T10:10:37.865Z,2.72
2023-07-29T10:13:05.749Z,0.88
2023-07-29T10:15:33.984Z,2.53
2023-07-29T10:18:01.952Z,2.75
2023-07-29T10:20:31.399Z,2.47
2023-07-29T10:23:00.638Z,0.70
2023-07-29T10:25:32.229Z,2.70
2023-07-29T10:28:03.617Z,0.90
2023-07-29T10:30:31.717Z,1.45
2023-07-29T10:33:00.261Z,0.73
2023-07-29T10:35:28.217Z,0.98
2023-07-29T10:37:57.400Z,0.85
2023-07-29T10:40:25.494Z,1.40
2023-07-29T10:43:03.672Z,1.23
2023-07-29T10:45:38.835Z,0.90
2023-07-29T10:48:09.678Z,1.05
2023-07-29T10:50:37.657Z,3.90
2023-07-29T10:53:06.823Z,0.77
2023-07-29T10:55:35.895Z,2.05
2023-07-29T10:58:07.950Z,0.90
2023-07-29T11:00:35.882Z,1.50
2023-07-29T11:03:04.991Z,1.95
2023-07-29T11:05:51.975Z,1.33
2023-07-29T11:08:22.756Z,3.00
2023-07-29T11:11:00.812Z,1.58
2023-07-29T11:13:29.947Z,0.70
2023-07-29T11:15:59.524Z,1.05
2023-07-29T11:18:29.342Z,1.65
2023-07-29T11:20:57.646Z,1.20
2023-07-29T11:23:31.600Z,1.52
2023-07-29T11:25:59.710Z,1.20
2023-07-29T11:28:28.486Z,1.27
2023-07-29T11:30:56.794Z,0.90
2023-07-29T11:33:26.784Z,1.10
2023-07-29T11:35:54.758Z,3.75
2023-07-29T11:38:23.462Z,2.05
2023-07-29T11:41:00.000Z,2.08
2023-07-29T11:43:28.747Z,1.67
2023-07-29T11:45:56.620Z,1.30
2023-07-29T11:48:30.734Z,2.65
2023-07-29T11:50:58.705Z,0.82
2023-07-29T11:53:29.705Z,2.53
2023-07-29T11:55:58.901Z,1.10
2023-07-29T11:58:26.818Z,12.02
2023-07-29T12:00:54.771Z,1.67
2023-07-29T12:03:22.986Z,2.15
2023-07-29T12:05:51.405Z,1.80
2023-07-29T12:08:19.260Z,2.78
2023-07-29T12:10:47.133Z,1.20
2023-07-29T12:13:16.559Z,1.23
2023-07-29T12:15:44.526Z,2.25
2023-07-29T12:18:14.109Z,4.75
2023-07-29T12:20:42.012Z,1.75
2023-07-29T12:23:09.979Z,1.35
2023-07-29T12:25:38.032Z,1.20
2023-07-29T12:28:07.682Z,1.13
2023-07-29T12:30:43.040Z,0.98
2023-07-29T12:33:11.038Z,0.90
2023-07-29T12:35:39.220Z,1.05
2023-07-29T12:38:07.337Z,1.02
2023-07-29T12:40:39.613Z,0.98
2023-07-29T12:43:07.571Z,3.05
2023-07-29T12:45:41.227Z,2.53
2023-07-29T12:48:09.503Z,0.90
2023-07-29T12:50:37.577Z,1.38
2023-07-29T12:53:06.545Z,1.10
2023-07-29T12:55:34.505Z,2.13
2023-07-29T12:58:02.456Z,2.05
2023-07-29T13:00:30.458Z,0.88
2023-07-29T13:02:59.772Z,1.20
2023-07-29T13:05:27.767Z,4.30
2023-07-29T13:07:55.732Z,0.90
2023-07-29T13:10:23.773Z,0.93
2023-07-29T13:12:51.672Z,2.80
2023-07-29T13:15:19.563Z,1.08
2023-07-29T13:17:47.581Z,4.20
2023-07-29T13:20:16.971Z,0.85
2023-07-29T13:22:44.875Z,1.08
2023-07-29T13:25:12.733Z,0.73
2023-07-29T13:27:40.715Z,1.00
2023-07-29T13:30:10.267Z,0.95
2023-07-29T13:32:38.222Z,1.75
2023-07-29T13:35:06.785Z,1.65
2023-07-29T13:37:36.132Z,3.13
2023-07-29T13:40:04.198Z,1.35
2023-07-29T13:42:32.102Z,1.20
2023-07-29T13:44:59.941Z,1.45
2023-07-29T13:47:27.882Z,1.50
2023-07-29T13:49:55.828Z,1.67
2023-07-29T13:52:23.675Z,2.30
2023-07-29T13:54:52.920Z,1.40
2023-07-29T13:57:20.841Z,3.10
2023-07-29T13:59:48.731Z,1.52
2023-07-29T14:02:16.593Z,1.60
2023-07-29T14:04:44.517Z,2.50
2023-07-29T14:07:12.487Z,1.33
2023-07-29T14:09:40.437Z,1.25
2023-07-29T14:12:13.344Z,0.90
2023-07-29T14:14:41.284Z,1.95
2023-07-29T14:17:09.535Z,0.95
2023-07-29T14:19:37.468Z,3.55
2023-07-29T14:22:05.746Z,1.40
2023-07-29T14:24:33.665Z,1.27
2023-07-29T14:27:01.495Z,1.42
2023-07-29T14:29:30.855Z,3.35
2023-07-29T14:31:58.806Z,1.35
2023-07-29T14:34:26.736Z,2.40
2023-07-29T14:36:54.605Z,1.63
2023-07-29T14:39:22.455Z,1.75
2023-07-29T14:41:50.353Z,3.40
2023-07-29T14:44:18.209Z,0.90
2023-07-29T14:46:47.415Z,1.13
2023-07-29T14:49:15.324Z,3.10
2023-07-29T14:51:43.136Z,1.02
2023-07-29T14:54:10.999Z,0.80
2023-07-29T14:56:39.105Z,5.68
2023-07-29T14:59:07.360Z,2.67
2023-07-29T15:01:35.830Z,1.17
2023-07-29T15:04:05.632Z,1.55
2023-07-29T15:06:33.536Z,2.13
2023-07-29T15:09:01.416Z,1.38
2023-07-29T15:11:29.275Z,1.48
2023-07-29T15:13:57.138Z,1.00
2023-07-29T15:16:25.656Z,1.05
2023-07-29T15:18:53.634Z,1.73
2023-07-29T15:21:22.888Z,2.33
2023-07-29T15:23:50.764Z,1.95
2023-07-29T15:26:18.629Z,1.45
2023-07-29T15:28:46.495Z,1.48
2023-07-29T15:31:14.888Z,1.00
2023-07-29T15:33:42.830Z,2.15
2023-07-29T15:36:10.689Z,1.70
2023-07-29T15:38:39.916Z,1.02
2023-07-29T15:41:07.765Z,3.70
2023-07-29T15:43:35.631Z,1.40
2023-07-29T15:46:03.499Z,1.20
2023-07-29T15:48:31.366Z,1.65
2023-07-29T15:50:59.241Z,1.52
2023-07-29T15:53:27.167Z,0.98
2023-07-29T15:55:56.508Z,3.70
2023-07-29T15:58:24.547Z,2.50
2023-07-29T16:00:52.434Z,2.05
2023-07-29T16:03:20.412Z,1.20
2023-07-29T16:05:48.475Z,2.00
2023-07-29T16:08:16.489Z,1.13
2023-07-29T16:10:44.442Z,1.73
2023-07-29T16:13:18.714Z,1.73
2023-07-29T16:15:46.529Z,1.75
2023-07-29T16:18:14.366Z,2.05
2023-07-29T16:20:42.183Z,1.92
2023-07-29T16:23:10.297Z,1.20
2023-07-29T16:25:38.302Z,1.52
2023-07-29T16:28:06.383Z,1.80
2023-07-29T16:30:36.931Z,1.13
2023-07-29T16:33:05.040Z,1.00
2023-07-29T16:35:33.114Z,2.05
2023-07-29T16:38:01.805Z,1.23
2023-07-29T16:40:29.710Z,1.05
2023-07-29T16:42:58.028Z,5.07
2023-07-29T16:45:26.050Z,1.10
2023-07-29T16:47:55.323Z,1.20
2023-07-29T16:50:23.213Z,1.80
2023-07-29T16:52:54.664Z,1.20
2023-07-29T16:55:22.694Z,1.52
2023-07-29T16:57:50.593Z,1.35
2023-07-29T17:00:21.683Z,4.10
2023-07-29T17:02:50.032Z,1.33
2023-07-29T17:05:19.834Z,2.85
2023-07-29T17:07:47.762Z,6.82
2023-07-29T17:10:15.839Z,2.17
2023-07-29T17:12:43.744Z,2.05
2023-07-29T17:15:11.877Z,2.53
2023-07-29T17:17:40.314Z,3.40
2023-07-29T17:20:09.764Z,1.23
2023-07-29T17:22:39.080Z,4.95
2023-07-29T17:25:07.683Z,4.68
2023-07-29T17:27:35.550Z,5.20
2023-07-29T17:30:03.439Z,3.10
2023-07-29T17:32:31.572Z,1.92
2023-07-29T17:34:59.510Z,2.13
2023-07-29T17:37:27.432Z,1.33
2023-07-29T17:39:56.995Z,2.40
2023-07-29T17:42:24.913Z,1.20
2023-07-29T17:44:52.790Z,1.20
2023-07-29T17:47:20.776Z,1.20
2023-07-29T17:49:48.771Z,4.55
2023-07-29T17:52:16.707Z,1.23
2023-07-29T17:54:44.566Z,3.15
2023-07-29T17:57:13.783Z,1.77
2023-07-29T17:59:41.632Z,2.25
2023-07-29T18:02:09.541Z,2.97
2023-07-29T18:04:37.456Z,2.83
2023-07-29T18:07:06.055Z,1.52
2023-07-29T18:09:34.143Z,4.00
2023-07-29T18:12:02.499Z,4.32
2023-07-29T18:14:31.777Z,4.30
2023-07-29T18:16:59.692Z,9.48
2023-07-29T18:19:30.964Z,7.53
2023-07-29T18:21:58.936Z,6.30
2023-07-29T18:24:26.914Z,14.02
2023-07-29T18:26:54.822Z,4.15
2023-07-29T18:29:22.735Z,6.35
2023-07-29T18:31:52.831Z,8.18
2023-07-29T18:34:22.330Z,4.90
2023-07-29T18:36:50.273Z,5.15
2023-07-29T18:39:18.252Z,8.63
2023-07-29T18:41:46.133Z,7.20
2023-07-29T18:44:13.994Z,6.50
2023-07-29T18:46:42.375Z,5.13
2023-07-29T18:49:11.678Z,11.30
2023-07-29T18:51:41.014Z,10.55
2023-07-29T18:54:08.937Z,3.45
2023-07-29T18:56:37.176Z,4.55
2023-07-29T18:59:05.584Z,10.52
2023-07-29T19:01:33.643Z,3.53
2023-07-29T19:04:01.654Z,7.65
2023-07-29T19:06:30.864Z,9.63
2023-07-29T19:08:58.716Z,4.95
2023-07-29T19:11:26.611Z,6.18
2023-07-29T19:13:55.320Z,5.82
2023-07-29T19:16:23.365Z,4.75
2023-07-29T19:18:51.205Z,2.10
2023-07-29T19:21:20.926Z,3.63
2023-07-29T19:23:50.321Z,7.03
2023-07-29T19:26:21.895Z,6.97
2023-07-29T19:28:50.325Z,7.30
2023-07-29T19:31:18.366Z,11.07
2023-07-29T19:33:46.292Z,2.60
2023-07-29T19:36:14.240Z,9.93
2023-07-29T19:38:42.124Z,11.65
2023-07-29T19:41:11.290Z,7.63
2023-07-29T19:43:39.212Z,5.30
2023-07-29T19:48:39.375Z,4.00
2023-07-29T19:51:07.693Z,16.30
2023-07-29T19:53:35.591Z,11.77
2023-07-29T19:56:04.166Z,5.90
2023-07-29T19:58:33.516Z,5.53
2023-07-29T20:01:01.814Z,4.57
2023-07-29T20:03:29.774Z,5.13
2023-07-29T20:05:57.680Z,8.77
2023-07-29T20:08:25.610Z,7.80
2023-07-29T20:10:53.726Z,9.13
2023-07-29T20:13:22.445Z,2.80
2023-07-29T20:15:52.159Z,6.93
2023-07-29T20:18:20.149Z,5.57
2023-07-29T20:20:49.412Z,4.95
2023-07-29T20:23:17.453Z,7.35
2023-07-29T20:25:45.320Z,4.32
2023-07-29T20:28:14.423Z,4.35
2023-07-29T20:30:43.153Z,4.57
2023-07-29T20:33:12.489Z,6.35
2023-07-29T20:35:40.375Z,9.30
2023-07-29T20:38:08.278Z,8.50
2023-07-29T20:40:36.227Z,3.63
2023-07-29T20:43:04.113Z,7.47
2023-07-29T20:45:31.972Z,6.78
2023-07-29T20:47:59.973Z,6.68
2023-07-29T20:50:29.478Z,5.90
2023-07-29T20:52:57.337Z,3.53
2023-07-29T20:55:25.458Z,4.60
2023-07-29T20:57:53.338Z,4.00
2023-07-29T21:00:21.374Z,3.88
2023-07-29T21:02:49.178Z,4.47
2023-07-29T21:05:17.285Z,4.45
2023-07-29T21:07:46.460Z,6.97
2023-07-29T21:10:14.354Z,7.50
2023-07-29T21:12:42.247Z,7.28
2023-07-29T21:15:11.251Z,11.73
2023-07-29T21:17:39.194Z,6.97
2023-07-29T21:20:08.421Z,5.85
2023-07-29T21:22:36.441Z,2.97
2023-07-29T21:25:06.485Z,9.68
2023-07-29T21:27:34.626Z,8.57
2023-07-29T21:30:02.525Z,7.97
2023-07-29T21:32:30.821Z,7.63
2023-07-29T21:34:59.873Z,6.70
2023-07-29T21:37:35.911Z,2.85
2023-07-29T21:40:07.388Z,4.53
2023-07-29T21:42:35.348Z,3.22
2023-07-29T21:45:03.234Z,3.88
2023-07-29T21:47:31.158Z,9.18
2023-07-29T21:49:59.069Z,8.20
2023-07-29T21:52:29.124Z,6.35
2023-07-29T21:54:57.313Z,4.93
2023-07-29T21:57:26.602Z,3.47
2023-07-29T21:59:54.429Z,3.35
2023-07-29T22:02:22.644Z,2.80
2023-07-29T22:04:50.644Z,4.47
2023-07-29T22:07:18.888Z,5.57
2023-07-29T22:09:47.149Z,8.38
2023-07-29T22:12:15.029Z,11.43
2023-07-29T22:14:44.698Z,3.67
2023-07-29T22:17:12.576Z,7.65
2023-07-29T22:19:40.480Z,4.05
2023-07-29T22:22:08.679Z,4.18
2023-07-29T22:24:36.626Z,9.55
2023-07-29T22:27:05.386Z,9.77
2023-07-29T22:29:33.365Z,6.05
2023-07-29T22:32:02.731Z,3.15
2023-07-29T22:34:30.734Z,5.13
2023-07-29T22:36:58.585Z,5.90
2023-07-29T22:39:26.492Z,12.40
2023-07-29T22:41:54.316Z,9.45
2023-07-29T22:44:22.204Z,2.85
2023-07-29T22:46:50.091Z,3.35
2023-07-29T22:49:19.279Z,5.35
2023-07-29T22:51:47.116Z,4.88
2023-07-29T22:54:15.194Z,7.93
2023-07-29T22:56:43.042Z,2.72
2023-07-29T22:59:10.981Z,1.60
2023-07-29T23:01:39.036Z,2.28
2023-07-29T23:04:06.972Z,4.45
2023-07-29T23:06:36.391Z,3.00
2023-07-29T23:09:04.701Z,5.05
2023-07-29T23:11:32.654Z,2.50
2023-07-29T23:14:00.611Z,1.98
2023-07-29T23:16:28.432Z,2.30
2023-07-29T23:18:56.308Z,9.75
2023-07-29T23:21:24.208Z,9.02
2023-07-29T23:23:53.414Z,3.17
2023-07-29T23:26:21.261Z,5.38
2023-07-29T23:28:49.122Z,1.90
2023-07-29T23:31:17.013Z,2.45
2023-07-29T23:33:44.847Z,2.35
2023-07-29T23:36:12.734Z,2.10
2023-07-29T23:38:40.634Z,5.90
2023-07-29T23:41:09.953Z,2.22
2023-07-29T23:43:37.860Z,4.07
2023-07-29T23:46:05.797Z,4.95
2023-07-29T23:48:33.717Z,3.45
2023-07-29T23:51:01.586Z,8.57
2023-07-29T23:53:30.000Z,2.20
2023-07-29T23:55:57.946Z,7.97
2023-07-29T23:58:27.446Z,3.35
